sensor_id;sensor_type;location;lat;lon;timestamp;pressure;altitude;pressure_sealevel;temperature;humidity
57086;BME280;42964;42.910;23.792;2022-08-05T00:04:04;97706.53;;;17.89;68.80
57086;BME280;42964;42.910;23.792;2022-08-05T00:09:04;97701.47;;;17.83;69.21
57086;BME280;42964;42.910;23.792;2022-08-05T00:14:03;97701.66;;;17.76;69.29
57086;BME280;42964;42.910;23.792;2022-08-05T00:19:03;97695.59;;;17.73;69.15
57086;BME280;42964;42.910;23.792;2022-08-05T00:24:02;97686.97;;;17.69;69.74
57086;BME280;42964;42.910;23.792;2022-08-05T00:29:01;97692.38;;;17.65;69.77
57086;BME280;42964;42.910;23.792;2022-08-05T00:34:00;97679.38;;;17.60;69.98
57086;BME280;42964;42.910;23.792;2022-08-05T00:38:59;97685.59;;;17.58;69.94
57086;BME280;42964;42.910;23.792;2022-08-05T00:43:59;97678.81;;;17.50;69.92
57086;BME280;42964;42.910;23.792;2022-08-05T00:48:58;97676.31;;;17.46;70.57
57086;BME280;42964;42.910;23.792;2022-08-05T00:53:57;97677.31;;;17.42;71.10
57086;BME280;42964;42.910;23.792;2022-08-05T00:58:55;97681.94;;;17.33;71.48
57086;BME280;42964;42.910;23.792;2022-08-05T01:03:54;97677.69;;;17.29;71.90
57086;BME280;42964;42.910;23.792;2022-08-05T01:08:53;97678.69;;;17.24;72.29
57086;BME280;42964;42.910;23.792;2022-08-05T01:19:01;97680.72;;;17.14;72.69
57086;BME280;42964;42.910;23.792;2022-08-05T01:24:34;97680.22;;;17.01;73.54
57086;BME280;42964;42.910;23.792;2022-08-05T01:29:46;97681.13;;;17.00;73.63
57086;BME280;42964;42.910;23.792;2022-08-05T01:34:50;97685.59;;;16.97;73.83
57086;BME280;42964;42.910;23.792;2022-08-05T01:39:53;97683.00;;;16.95;74.16
57086;BME280;42964;42.910;23.792;2022-08-05T01:44:55;97678.97;;;16.83;75.06
57086;BME280;42964;42.910;23.792;2022-08-05T01:49:55;97685.44;;;16.70;75.21
57086;BME280;42964;42.910;23.792;2022-08-05T01:54:58;97686.84;;;16.49;75.45
57086;BME280;42964;42.910;23.792;2022-08-05T02:00:02;97693.13;;;16.42;75.71
57086;BME280;42964;42.910;23.792;2022-08-05T02:05:05;97681.13;;;16.33;76.12
57086;BME280;42964;42.910;23.792;2022-08-05T02:10:05;97672.66;;;16.23;76.55
57086;BME280;42964;42.910;23.792;2022-08-05T02:15:12;97691.09;;;16.19;76.66
57086;BME280;42964;42.910;23.792;2022-08-05T02:20:17;97668.50;;;16.15;76.58
57086;BME280;42964;42.910;23.792;2022-08-05T02:25:30;97668.53;;;16.13;76.90
57086;BME280;42964;42.910;23.792;2022-08-05T02:30:37;97677.31;;;16.11;76.80
57086;BME280;42964;42.910;23.792;2022-08-05T02:35:37;97660.13;;;16.00;77.08
57086;BME280;42964;42.910;23.792;2022-08-05T02:40:41;97674.91;;;16.03;77.04
57086;BME280;42964;42.910;23.792;2022-08-05T02:45:41;97671.56;;;15.96;77.75
57086;BME280;42964;42.910;23.792;2022-08-05T02:50:41;97669.03;;;15.93;77.72
57086;BME280;42964;42.910;23.792;2022-08-05T02:55:41;97673.53;;;15.88;78.30
57086;BME280;42964;42.910;23.792;2022-08-05T03:00:40;97678.81;;;15.85;78.09
57086;BME280;42964;42.910;23.792;2022-08-05T03:05:40;97673.72;;;15.79;78.34
57086;BME280;42964;42.910;23.792;2022-08-05T03:10:43;97674.69;;;15.73;78.49
57086;BME280;42964;42.910;23.792;2022-08-05T03:15:46;97667.00;;;15.65;78.59
57086;BME280;42964;42.910;23.792;2022-08-05T03:20:45;97681.78;;;15.68;78.71
57086;BME280;42964;42.910;23.792;2022-08-05T03:25:45;97680.88;;;15.69;78.70
57086;BME280;42964;42.910;23.792;2022-08-05T03:30:44;97674.72;;;15.72;78.62
57086;BME280;42964;42.910;23.792;2022-08-05T03:35:45;97686.81;;;15.76;78.67
57086;BME280;42964;42.910;23.792;2022-08-05T03:40:45;97681.59;;;15.76;78.56
57086;BME280;42964;42.910;23.792;2022-08-05T03:45:44;97696.41;;;15.77;78.55
57086;BME280;42964;42.910;23.792;2022-08-05T03:50:51;97698.06;;;15.81;78.26
57086;BME280;42964;42.910;23.792;2022-08-05T03:55:57;97696.34;;;15.81;78.27
57086;BME280;42964;42.910;23.792;2022-08-05T04:00:59;97695.22;;;15.92;78.24
57086;BME280;42964;42.910;23.792;2022-08-05T04:05:59;97698.44;;;16.03;78.63
57086;BME280;42964;42.910;23.792;2022-08-05T04:10:58;97701.81;;;16.08;79.26
57086;BME280;42964;42.910;23.792;2022-08-05T04:15:57;97708.91;;;16.03;78.97
57086;BME280;42964;42.910;23.792;2022-08-05T04:20:56;97699.44;;;15.97;78.80
57086;BME280;42964;42.910;23.792;2022-08-05T04:25:55;97706.09;;;16.12;78.37
57086;BME280;42964;42.910;23.792;2022-08-05T04:30:54;97694.34;;;16.28;78.35
57086;BME280;42964;42.910;23.792;2022-08-05T04:35:53;97681.91;;;16.37;78.04
57086;BME280;42964;42.910;23.792;2022-08-05T04:40:52;97693.78;;;16.51;77.80
57086;BME280;42964;42.910;23.792;2022-08-05T04:45:51;97696.22;;;16.58;77.47
57086;BME280;42964;42.910;23.792;2022-08-05T04:50:49;97693.00;;;16.46;78.05
57086;BME280;42964;42.910;23.792;2022-08-05T04:55:48;97695.09;;;16.34;78.62
57086;BME280;42964;42.910;23.792;2022-08-05T05:00:47;97692.59;;;16.27;78.91
57086;BME280;42964;42.910;23.792;2022-08-05T05:05:46;97690.00;;;16.27;79.24
57086;BME280;42964;42.910;23.792;2022-08-05T05:10:47;97688.09;;;16.34;79.91
57086;BME280;42964;42.910;23.792;2022-08-05T05:15:46;97687.75;;;16.46;79.79
57086;BME280;42964;42.910;23.792;2022-08-05T05:20:46;97678.31;;;16.73;79.10
57086;BME280;42964;42.910;23.792;2022-08-05T05:25:45;97690.69;;;17.03;78.24
57086;BME280;42964;42.910;23.792;2022-08-05T05:30:45;97677.09;;;17.20;75.30
57086;BME280;42964;42.910;23.792;2022-08-05T05:35:44;97677.41;;;17.39;75.07
57086;BME280;42964;42.910;23.792;2022-08-05T05:40:44;97668.88;;;17.60;74.07
57086;BME280;42964;42.910;23.792;2022-08-05T05:45:43;97682.53;;;18.01;73.70
57086;BME280;42964;42.910;23.792;2022-08-05T05:50:42;97682.53;;;18.28;72.55
57086;BME280;42964;42.910;23.792;2022-08-05T05:55:41;97676.34;;;18.55;71.68
57086;BME280;42964;42.910;23.792;2022-08-05T06:00:40;97681.47;;;18.85;70.02
57086;BME280;42964;42.910;23.792;2022-08-05T06:05:39;97675.97;;;19.16;68.39
57086;BME280;42964;42.910;23.792;2022-08-05T06:10:38;97673.16;;;19.44;67.23
57086;BME280;42964;42.910;23.792;2022-08-05T06:15:36;97686.16;;;19.73;65.70
57086;BME280;42964;42.910;23.792;2022-08-05T06:20:36;97681.44;;;20.03;65.15
57086;BME280;42964;42.910;23.792;2022-08-05T06:25:35;97665.00;;;20.18;62.66
57086;BME280;42964;42.910;23.792;2022-08-05T06:30:34;97681.16;;;20.53;60.74
57086;BME280;42964;42.910;23.792;2022-08-05T06:35:33;97679.56;;;20.90;60.04
57086;BME280;42964;42.910;23.792;2022-08-05T06:40:32;97677.41;;;21.19;55.71
57086;BME280;42964;42.910;23.792;2022-08-05T06:45:31;97672.97;;;21.40;54.76
57086;BME280;42964;42.910;23.792;2022-08-05T06:50:30;97660.63;;;21.59;53.67
57086;BME280;42964;42.910;23.792;2022-08-05T06:55:29;97667.19;;;21.88;51.96
57086;BME280;42964;42.910;23.792;2022-08-05T07:00:27;97666.00;;;22.13;51.50
57086;BME280;42964;42.910;23.792;2022-08-05T07:05:28;97656.69;;;22.41;51.00
57086;BME280;42964;42.910;23.792;2022-08-05T07:10:27;97662.00;;;22.75;50.66
57086;BME280;42964;42.910;23.792;2022-08-05T07:15:26;97663.91;;;23.07;49.43
57086;BME280;42964;42.910;23.792;2022-08-05T07:20:43;97657.22;;;23.33;48.08
57086;BME280;42964;42.910;23.792;2022-08-05T07:25:42;97657.63;;;23.58;48.41
57086;BME280;42964;42.910;23.792;2022-08-05T07:30:41;97660.78;;;23.81;46.62
57086;BME280;42964;42.910;23.792;2022-08-05T07:35:40;97653.91;;;24.09;45.76
57086;BME280;42964;42.910;23.792;2022-08-05T07:40:39;97650.06;;;24.30;46.05
57086;BME280;42964;42.910;23.792;2022-08-05T07:45:41;97654.22;;;24.64;45.77
57086;BME280;42964;42.910;23.792;2022-08-05T07:50:40;97650.69;;;24.94;45.85
57086;BME280;42964;42.910;23.792;2022-08-05T07:55:39;97655.63;;;25.29;45.52
57086;BME280;42964;42.910;23.792;2022-08-05T08:00:38;97650.41;;;25.56;42.54
57086;BME280;42964;42.910;23.792;2022-08-05T08:05:40;97651.09;;;25.87;39.84
57086;BME280;42964;42.910;23.792;2022-08-05T08:10:41;97646.66;;;26.14;40.30
57086;BME280;42964;42.910;23.792;2022-08-05T08:15:40;97644.84;;;26.42;39.76
57086;BME280;42964;42.910;23.792;2022-08-05T08:20:40;97638.38;;;26.72;37.29
57086;BME280;42964;42.910;23.792;2022-08-05T08:25:39;97639.69;;;27.05;36.72
57086;BME280;42964;42.910;23.792;2022-08-05T08:30:38;97643.09;;;27.32;37.53
57086;BME280;42964;42.910;23.792;2022-08-05T08:35:37;97637.97;;;27.55;38.34
57086;BME280;42964;42.910;23.792;2022-08-05T08:40:36;97631.06;;;27.76;37.28
57086;BME280;42964;42.910;23.792;2022-08-05T08:45:36;97629.72;;;27.95;35.42
57086;BME280;42964;42.910;23.792;2022-08-05T08:50:39;97611.13;;;28.06;35.04
57086;BME280;42964;42.910;23.792;2022-08-05T08:55:39;97614.16;;;28.37;35.13
57086;BME280;42964;42.910;23.792;2022-08-05T09:00:38;97618.81;;;28.46;33.14
57086;BME280;42964;42.910;23.792;2022-08-05T09:05:37;97607.28;;;28.57;33.97
57086;BME280;42964;42.910;23.792;2022-08-05T09:10:40;97606.03;;;28.74;33.38
57086;BME280;42964;42.910;23.792;2022-08-05T09:15:39;97602.66;;;28.83;32.66
57086;BME280;42964;42.910;23.792;2022-08-05T09:20:38;97593.56;;;29.08;32.21
57086;BME280;42964;42.910;23.792;2022-08-05T09:25:41;97590.06;;;29.30;31.12
57086;BME280;42964;42.910;23.792;2022-08-05T09:30:51;97588.94;;;29.21;30.70
57086;BME280;42964;42.910;23.792;2022-08-05T09:36:02;97579.13;;;29.33;30.62
57086;BME280;42964;42.910;23.792;2022-08-05T09:41:03;97583.94;;;29.50;30.60
57086;BME280;42964;42.910;23.792;2022-08-05T09:46:04;97562.88;;;29.68;31.29
57086;BME280;42964;42.910;23.792;2022-08-05T09:51:07;97563.81;;;29.90;31.02
57086;BME280;42964;42.910;23.792;2022-08-05T09:56:10;97560.25;;;30.01;30.33
57086;BME280;42964;42.910;23.792;2022-08-05T10:01:11;97553.19;;;30.00;28.77
57086;BME280;42964;42.910;23.792;2022-08-05T10:06:10;97547.59;;;30.03;29.60
57086;BME280;42964;42.910;23.792;2022-08-05T10:11:14;97540.19;;;29.95;30.15
57086;BME280;42964;42.910;23.792;2022-08-05T10:16:34;97538.72;;;30.23;29.69
57086;BME280;42964;42.910;23.792;2022-08-05T10:21:33;97516.84;;;30.18;29.90
57086;BME280;42964;42.910;23.792;2022-08-05T10:26:32;97531.16;;;30.28;29.39
57086;BME280;42964;42.910;23.792;2022-08-05T10:31:31;97526.84;;;30.58;29.53
57086;BME280;42964;42.910;23.792;2022-08-05T10:36:30;97531.84;;;30.72;28.08
57086;BME280;42964;42.910;23.792;2022-08-05T10:41:35;97511.78;;;30.88;27.79
57086;BME280;42964;42.910;23.792;2022-08-05T10:46:50;97512.72;;;31.08;27.84
57086;BME280;42964;42.910;23.792;2022-08-05T10:51:55;97516.06;;;31.00;27.63
57086;BME280;42964;42.910;23.792;2022-08-05T10:56:58;97505.56;;;31.28;28.32
57086;BME280;42964;42.910;23.792;2022-08-05T11:02:12;97501.84;;;31.59;27.73
57086;BME280;42964;42.910;23.792;2022-08-05T11:07:11;97497.91;;;31.83;26.68
57086;BME280;42964;42.910;23.792;2022-08-05T11:12:42;97486.03;;;32.15;27.16
57086;BME280;42964;42.910;23.792;2022-08-05T11:17:44;97491.41;;;32.15;25.44
57086;BME280;42964;42.910;23.792;2022-08-05T11:22:47;97484.91;;;31.88;26.33
57086;BME280;42964;42.910;23.792;2022-08-05T11:27:46;97477.34;;;31.33;26.77
57086;BME280;42964;42.910;23.792;2022-08-05T11:32:45;97490.66;;;30.94;27.39
57086;BME280;42964;42.910;23.792;2022-08-05T11:42:52;97487.03;;;30.74;26.87
57086;BME280;42964;42.910;23.792;2022-08-05T11:47:51;97473.97;;;30.91;27.12
57086;BME280;42964;42.910;23.792;2022-08-05T11:52:50;97473.09;;;31.11;26.52
57086;BME280;42964;42.910;23.792;2022-08-05T11:57:49;97465.69;;;31.64;25.96
57086;BME280;42964;42.910;23.792;2022-08-05T12:02:48;97458.47;;;32.03;26.13
57086;BME280;42964;42.910;23.792;2022-08-05T12:07:47;97461.72;;;31.87;26.05
57086;BME280;42964;42.910;23.792;2022-08-05T12:12:48;97462.75;;;31.67;26.50
57086;BME280;42964;42.910;23.792;2022-08-05T12:17:47;97461.75;;;31.58;26.12
57086;BME280;42964;42.910;23.792;2022-08-05T12:22:46;97458.63;;;31.43;26.31
57086;BME280;42964;42.910;23.792;2022-08-05T12:27:46;97451.16;;;31.56;26.21
57086;BME280;42964;42.910;23.792;2022-08-05T12:32:47;97455.13;;;31.72;25.77
57086;BME280;42964;42.910;23.792;2022-08-05T12:37:48;97446.75;;;31.85;26.46
57086;BME280;42964;42.910;23.792;2022-08-05T12:42:48;97445.66;;;31.97;25.42
57086;BME280;42964;42.910;23.792;2022-08-05T12:47:47;97437.75;;;31.76;26.38
57086;BME280;42964;42.910;23.792;2022-08-05T12:52:55;97434.91;;;31.97;25.42
57086;BME280;42964;42.910;23.792;2022-08-05T12:57:58;97430.28;;;32.36;25.37
57086;BME280;42964;42.910;23.792;2022-08-05T13:02:57;97415.16;;;32.82;24.38
57086;BME280;42964;42.910;23.792;2022-08-05T13:07:56;97412.16;;;33.13;24.32
57086;BME280;42964;42.910;23.792;2022-08-05T13:12:56;97412.47;;;33.46;23.48
57086;BME280;42964;42.910;23.792;2022-08-05T13:17:55;97401.88;;;33.44;23.78
57086;BME280;42964;42.910;23.792;2022-08-05T13:22:54;97403.06;;;32.69;24.49
57086;BME280;42964;42.910;23.792;2022-08-05T13:27:54;97408.22;;;32.42;24.35
57086;BME280;42964;42.910;23.792;2022-08-05T13:32:56;97408.06;;;32.07;24.88
57086;BME280;42964;42.910;23.792;2022-08-05T13:37:55;97394.22;;;32.01;24.98
57086;BME280;42964;42.910;23.792;2022-08-05T13:42:54;97392.78;;;32.17;24.54
57086;BME280;42964;42.910;23.792;2022-08-05T13:47:53;97392.38;;;32.49;24.55
57086;BME280;42964;42.910;23.792;2022-08-05T13:52:51;97390.22;;;32.15;24.51
57086;BME280;42964;42.910;23.792;2022-08-05T13:57:50;97383.91;;;31.87;24.52
57086;BME280;42964;42.910;23.792;2022-08-05T14:02:50;97370.84;;;31.65;24.17
57086;BME280;42964;42.910;23.792;2022-08-05T14:07:49;97377.13;;;31.93;23.88
57086;BME280;42964;42.910;23.792;2022-08-05T14:12:51;97378.25;;;32.10;23.90
57086;BME280;42964;42.910;23.792;2022-08-05T14:17:50;97370.56;;;32.62;23.18
57086;BME280;42964;42.910;23.792;2022-08-05T14:22:49;97361.47;;;32.73;23.15
57086;BME280;42964;42.910;23.792;2022-08-05T14:27:48;97372.63;;;32.40;22.72
57086;BME280;42964;42.910;23.792;2022-08-05T14:32:48;97367.16;;;32.32;23.96
57086;BME280;42964;42.910;23.792;2022-08-05T14:37:47;97368.19;;;32.21;24.34
57086;BME280;42964;42.910;23.792;2022-08-05T14:42:46;97353.38;;;32.08;24.62
57086;BME280;42964;42.910;23.792;2022-08-05T14:47:45;97356.06;;;32.08;25.33
57086;BME280;42964;42.910;23.792;2022-08-05T14:52:44;97356.03;;;32.17;24.40
57086;BME280;42964;42.910;23.792;2022-08-05T14:57:43;97342.47;;;32.19;24.53
57086;BME280;42964;42.910;23.792;2022-08-05T15:02:42;97359.69;;;32.26;24.62
57086;BME280;42964;42.910;23.792;2022-08-05T15:07:41;97344.28;;;32.28;25.19
57086;BME280;42964;42.910;23.792;2022-08-05T15:12:40;97346.13;;;32.28;24.87
57086;BME280;42964;42.910;23.792;2022-08-05T15:17:39;97331.34;;;32.14;24.91
57086;BME280;42964;42.910;23.792;2022-08-05T15:22:38;97343.22;;;32.01;25.53
57086;BME280;42964;42.910;23.792;2022-08-05T15:27:37;97342.81;;;32.06;25.95
57086;BME280;42964;42.910;23.792;2022-08-05T15:32:36;97326.06;;;32.22;24.90
57086;BME280;42964;42.910;23.792;2022-08-05T15:37:35;97325.03;;;32.33;24.55
57086;BME280;42964;42.910;23.792;2022-08-05T15:42:34;97323.31;;;32.32;24.09
57086;BME280;42964;42.910;23.792;2022-08-05T15:47:33;97314.91;;;32.17;24.56
57086;BME280;42964;42.910;23.792;2022-08-05T15:52:34;97325.22;;;32.21;24.42
57086;BME280;42964;42.910;23.792;2022-08-05T15:57:34;97324.38;;;32.21;25.06
57086;BME280;42964;42.910;23.792;2022-08-05T16:02:34;97321.34;;;32.34;25.72
57086;BME280;42964;42.910;23.792;2022-08-05T16:07:33;97318.69;;;32.24;25.11
57086;BME280;42964;42.910;23.792;2022-08-05T16:12:32;97323.16;;;32.06;25.37
57086;BME280;42964;42.910;23.792;2022-08-05T16:17:31;97321.53;;;31.75;25.73
57086;BME280;42964;42.910;23.792;2022-08-05T16:22:30;97326.34;;;31.72;26.25
57086;BME280;42964;42.910;23.792;2022-08-05T16:27:29;97315.34;;;31.46;26.70
57086;BME280;42964;42.910;23.792;2022-08-05T16:32:29;97323.69;;;31.33;26.73
57086;BME280;42964;42.910;23.792;2022-08-05T16:37:28;97323.41;;;31.16;27.66
57086;BME280;42964;42.910;23.792;2022-08-05T16:42:29;97328.50;;;31.00;27.56
57086;BME280;42964;42.910;23.792;2022-08-05T16:47:28;97326.63;;;30.91;28.12
57086;BME280;42964;42.910;23.792;2022-08-05T16:52:27;97321.94;;;30.73;28.07
57086;BME280;42964;42.910;23.792;2022-08-05T16:57:25;97330.94;;;30.63;29.15
57086;BME280;42964;42.910;23.792;2022-08-05T17:02:25;97342.44;;;30.44;29.55
57086;BME280;42964;42.910;23.792;2022-08-05T17:07:24;97346.69;;;30.16;29.96
57086;BME280;42964;42.910;23.792;2022-08-05T17:12:23;97339.94;;;29.90;30.31
57086;BME280;42964;42.910;23.792;2022-08-05T17:17:22;97336.69;;;29.66;30.46
57086;BME280;42964;42.910;23.792;2022-08-05T17:22:21;97344.31;;;29.49;30.78
57086;BME280;42964;42.910;23.792;2022-08-05T17:27:20;97352.19;;;29.30;31.11
57086;BME280;42964;42.910;23.792;2022-08-05T17:32:19;97352.25;;;29.07;31.29
57086;BME280;42964;42.910;23.792;2022-08-05T17:37:18;97358.63;;;28.84;32.54
57086;BME280;42964;42.910;23.792;2022-08-05T17:42:17;97369.59;;;28.58;33.19
57086;BME280;42964;42.910;23.792;2022-08-05T17:47:19;97375.44;;;28.30;34.06
57086;BME280;42964;42.910;23.792;2022-08-05T17:52:19;97374.28;;;27.98;34.61
57086;BME280;42964;42.910;23.792;2022-08-05T17:57:18;97369.38;;;27.70;34.93
57086;BME280;42964;42.910;23.792;2022-08-05T18:02:17;97367.84;;;27.43;35.98
57086;BME280;42964;42.910;23.792;2022-08-05T18:07:16;97373.09;;;27.20;36.61
57086;BME280;42964;42.910;23.792;2022-08-05T18:12:15;97381.09;;;26.96;36.86
57086;BME280;42964;42.910;23.792;2022-08-05T18:17:14;97389.03;;;26.72;37.83
57086;BME280;42964;42.910;23.792;2022-08-05T18:22:13;97396.94;;;26.48;38.23
57086;BME280;42964;42.910;23.792;2022-08-05T18:27:12;97401.22;;;26.25;39.13
57086;BME280;42964;42.910;23.792;2022-08-05T18:32:10;97412.72;;;26.00;40.24
57086;BME280;42964;42.910;23.792;2022-08-05T18:37:09;97412.16;;;25.69;40.86
57086;BME280;42964;42.910;23.792;2022-08-05T18:42:08;97407.69;;;25.43;41.21
57086;BME280;42964;42.910;23.792;2022-08-05T18:47:08;97401.72;;;25.26;41.27
57086;BME280;42964;42.910;23.792;2022-08-05T18:52:07;97407.59;;;25.04;41.63
57086;BME280;42964;42.910;23.792;2022-08-05T18:57:24;97415.50;;;24.77;42.82
57086;BME280;42964;42.910;23.792;2022-08-05T19:02:23;97428.69;;;24.64;42.93
57086;BME280;42964;42.910;23.792;2022-08-05T19:07:22;97427.84;;;24.49;42.77
57086;BME280;42964;42.910;23.792;2022-08-05T19:12:21;97433.91;;;24.37;43.14
57086;BME280;42964;42.910;23.792;2022-08-05T19:17:20;97434.50;;;24.28;42.82
57086;BME280;42964;42.910;23.792;2022-08-05T19:22:19;97436.06;;;24.16;43.41
57086;BME280;42964;42.910;23.792;2022-08-05T19:27:19;97432.56;;;24.01;43.96
57086;BME280;42964;42.910;23.792;2022-08-05T19:32:18;97420.13;;;23.88;44.07
57086;BME280;42964;42.910;23.792;2022-08-05T19:37:17;97429.41;;;23.80;44.12
57086;BME280;42964;42.910;23.792;2022-08-05T19:42:16;97426.53;;;23.69;44.87
57086;BME280;42964;42.910;23.792;2022-08-05T19:47:15;97426.69;;;23.52;45.78
57086;BME280;42964;42.910;23.792;2022-08-05T19:52:15;97430.25;;;23.35;46.18
57086;BME280;42964;42.910;23.792;2022-08-05T19:57:14;97432.78;;;23.22;46.16
57086;BME280;42964;42.910;23.792;2022-08-05T20:02:13;97423.31;;;23.02;46.79
57086;BME280;42964;42.910;23.792;2022-08-05T20:07:13;97420.44;;;22.91;47.42
57086;BME280;42964;42.910;23.792;2022-08-05T20:12:12;97426.50;;;22.77;47.27
57086;BME280;42964;42.910;23.792;2022-08-05T20:17:11;97429.69;;;22.66;47.74
57086;BME280;42964;42.910;23.792;2022-08-05T20:22:10;97431.22;;;22.54;47.91
57086;BME280;42964;42.910;23.792;2022-08-05T20:27:09;97416.88;;;22.43;48.16
57086;BME280;42964;42.910;23.792;2022-08-05T20:32:08;97425.13;;;22.36;48.16
57086;BME280;42964;42.910;23.792;2022-08-05T20:37:07;97435.28;;;22.28;48.53
57086;BME280;42964;42.910;23.792;2022-08-05T20:42:06;97427.41;;;22.11;50.31
57086;BME280;42964;42.910;23.792;2022-08-05T20:47:05;97413.25;;;21.94;51.07
57086;BME280;42964;42.910;23.792;2022-08-05T20:52:04;97427.63;;;21.89;52.13
57086;BME280;42964;42.910;23.792;2022-08-05T20:57:03;97426.63;;;21.74;52.56
57086;BME280;42964;42.910;23.792;2022-08-05T21:02:03;97424.28;;;21.68;52.91
57086;BME280;42964;42.910;23.792;2022-08-05T21:07:02;97420.66;;;21.53;53.52
57086;BME280;42964;42.910;23.792;2022-08-05T21:12:01;97399.75;;;21.31;53.56
57086;BME280;42964;42.910;23.792;2022-08-05T21:17:00;97426.06;;;21.32;54.69
57086;BME280;42964;42.910;23.792;2022-08-05T21:21:59;97436.84;;;21.28;54.86
57086;BME280;42964;42.910;23.792;2022-08-05T21:26:58;97430.97;;;21.23;55.16
57086;BME280;42964;42.910;23.792;2022-08-05T21:31:57;97427.88;;;21.13;55.59
57086;BME280;42964;42.910;23.792;2022-08-05T21:36:56;97433.38;;;21.08;56.23
57086;BME280;42964;42.910;23.792;2022-08-05T21:41:55;97429.47;;;20.98;56.13
57086;BME280;42964;42.910;23.792;2022-08-05T21:46:54;97421.94;;;20.90;56.14
57086;BME280;42964;42.910;23.792;2022-08-05T21:51:53;97435.66;;;20.80;56.14
57086;BME280;42964;42.910;23.792;2022-08-05T21:56:52;97432.25;;;20.59;58.56
57086;BME280;42964;42.910;23.792;2022-08-05T22:01:51;97435.34;;;20.48;59.60
57086;BME280;42964;42.910;23.792;2022-08-05T22:06:50;97435.72;;;20.40;59.63
57086;BME280;42964;42.910;23.792;2022-08-05T22:11:49;97437.78;;;20.32;59.88
57086;BME280;42964;42.910;23.792;2022-08-05T22:16:48;97433.88;;;20.22;60.77
57086;BME280;42964;42.910;23.792;2022-08-05T22:21:47;97430.72;;;20.14;60.72
57086;BME280;42964;42.910;23.792;2022-08-05T22:26:46;97425.78;;;20.06;61.11
57086;BME280;42964;42.910;23.792;2022-08-05T22:32:04;97419.16;;;19.97;62.25
57086;BME280;42964;42.910;23.792;2022-08-05T22:37:03;97433.81;;;19.84;63.31
57086;BME280;42964;42.910;23.792;2022-08-05T22:42:03;97427.16;;;19.75;63.09
57086;BME280;42964;42.910;23.792;2022-08-05T22:47:02;97425.63;;;19.70;63.18
57086;BME280;42964;42.910;23.792;2022-08-05T22:52:01;97425.91;;;19.63;63.28
57086;BME280;42964;42.910;23.792;2022-08-05T22:57:00;97425.16;;;19.60;63.41
57086;BME280;42964;42.910;23.792;2022-08-05T23:01:59;97433.34;;;19.52;63.59
57086;BME280;42964;42.910;23.792;2022-08-05T23:06:58;97414.53;;;19.41;64.02
57086;BME280;42964;42.910;23.792;2022-08-05T23:11:57;97419.94;;;19.38;64.46
57086;BME280;42964;42.910;23.792;2022-08-05T23:16:56;97415.78;;;19.32;64.50
57086;BME280;42964;42.910;23.792;2022-08-05T23:22:14;97420.44;;;19.26;64.58
57086;BME280;42964;42.910;23.792;2022-08-05T23:27:14;97417.06;;;19.22;64.80
57086;BME280;42964;42.910;23.792;2022-08-05T23:32:13;97378.63;;;18.97;64.80
57086;BME280;42964;42.910;23.792;2022-08-05T23:37:12;97410.66;;;19.07;65.69
57086;BME280;42964;42.910;23.792;2022-08-05T23:42:11;97412.50;;;19.05;66.18
57086;BME280;42964;42.910;23.792;2022-08-05T23:47:10;97414.47;;;19.00;66.42
57086;BME280;42964;42.910;23.792;2022-08-05T23:52:09;97417.28;;;18.95;66.47
57086;BME280;42964;42.910;23.792;2022-08-05T23:57:24;97409.56;;;18.91;66.65
